createdAt,value
2018-06-22T00:01:33.563Z,72.19
2018-06-22T00:04:07.150Z,71.82
2018-06-22T00:06:41.300Z,71.56
2018-06-22T00:09:15.344Z,71.54
2018-06-22T00:11:48.357Z,71.89
2018-06-22T00:14:22.096Z,72.25
2018-06-22T00:16:57.604Z,72.62
2018-06-22T00:19:33.494Z,72.90
2018-06-22T00:22:07.386Z,73.16
2018-06-22T00:24:41.029Z,72.57
2018-06-22T00:27:15.187Z,72.00
2018-06-22T00:29:48.558Z,71.74
2018-06-22T00:32:21.332Z,71.24
2018-06-22T00:35:02.424Z,71.09
2018-06-22T00:37:38.692Z,70.87
2018-06-22T00:40:11.877Z,70.67
2018-06-22T00:42:44.838Z,70.41
2018-06-22T00:45:17.288Z,69.62
2018-06-22T00:47:49.946Z,69.70
2018-06-22T00:50:23.931Z,69.67
2018-06-22T00:52:57.016Z,69.80
2018-06-22T00:55:30.130Z,70.33
2018-06-22T00:58:03.396Z,70.54
2018-06-22T01:00:38.562Z,70.96
2018-06-22T01:03:14.777Z,71.35
2018-06-22T01:05:47.817Z,71.72
2018-06-22T01:08:22.017Z,72.28
2018-06-22T01:10:56.669Z,72.29
2018-06-22T01:13:32.134Z,72.49
2018-06-22T01:16:06.054Z,72.55
2018-06-22T01:18:39.697Z,73.23
2018-06-22T01:21:13.013Z,73.29
2018-06-22T01:23:48.751Z,73.14
2018-06-22T01:26:22.370Z,73.33
2018-06-22T01:29:17.177Z,73.46
2018-06-22T01:31:50.291Z,73.52
2018-06-22T01:34:23.616Z,73.72
2018-06-22T01:36:57.602Z,73.76
2018-06-22T01:39:31.762Z,73.66
2018-06-22T01:42:04.635Z,74.08
2018-06-22T01:44:38.281Z,74.17
2018-06-22T01:47:10.817Z,74.34
2018-06-22T01:49:43.621Z,74.15
2018-06-22T01:52:16.212Z,74.26
2018-06-22T01:54:49.187Z,74.41
2018-06-22T01:57:22.633Z,74.68
2018-06-22T01:59:55.369Z,74.34
2018-06-22T02:02:28.113Z,74.21
2018-06-22T02:05:01.133Z,73.76
2018-06-22T02:07:33.948Z,73.47
2018-06-22T02:10:06.919Z,73.45
2018-06-22T02:12:40.077Z,73.41
2018-06-22T02:15:14.116Z,72.85
2018-06-22T02:17:46.676Z,72.52
2018-06-22T02:20:19.580Z,72.43
2018-06-22T02:22:52.186Z,72.42
2018-06-22T02:25:24.955Z,72.40
2018-06-22T02:27:57.876Z,72.60
2018-06-22T02:30:31.137Z,72.50
2018-06-22T02:33:03.866Z,72.35
2018-06-22T02:35:37.977Z,72.28
2018-06-22T02:38:11.385Z,71.94
2018-06-22T02:40:44.968Z,71.82
2018-06-22T02:43:19.091Z,71.71
2018-06-22T02:45:53.089Z,71.50
2018-06-22T02:48:25.713Z,71.30
2018-06-22T02:51:01.804Z,71.46
2018-06-22T02:53:35.658Z,71.67
2018-06-22T02:56:09.137Z,71.98
2018-06-22T02:58:45.425Z,72.14
2018-06-22T03:01:18.854Z,72.49
2018-06-22T03:03:51.654Z,72.79
2018-06-22T03:06:25.336Z,72.96
2018-06-22T03:08:59.227Z,73.19
2018-06-22T03:11:33.970Z,73.51
2018-06-22T03:14:08.696Z,73.75
2018-06-22T03:16:41.287Z,73.93
2018-06-22T03:19:13.814Z,74.24
2018-06-22T03:21:46.625Z,74.77
2018-06-22T03:24:19.227Z,74.86
2018-06-22T03:26:51.755Z,74.85
2018-06-22T03:29:24.682Z,74.52
2018-06-22T03:31:58.580Z,74.50
2018-06-22T03:34:31.452Z,74.27
2018-06-22T03:37:05.633Z,73.92
2018-06-22T03:39:38.357Z,73.71
2018-06-22T03:42:10.893Z,73.57
2018-06-22T03:44:44.606Z,73.19
2018-06-22T03:47:17.839Z,72.91
2018-06-22T03:49:50.241Z,72.79
2018-06-22T03:52:23.306Z,72.43
2018-06-22T03:54:55.849Z,71.85
2018-06-22T03:57:28.933Z,71.69
2018-06-22T04:00:05.022Z,71.61
2018-06-22T04:02:38.876Z,71.45
2018-06-22T04:05:11.656Z,71.32
2018-06-22T04:07:44.842Z,71.19
2018-06-22T04:10:17.580Z,71.38
2018-06-22T04:12:50.205Z,71.38
2018-06-22T04:15:23.328Z,71.25
2018-06-22T04:17:56.351Z,71.41
2018-06-22T04:20:29.418Z,71.17
2018-06-22T04:23:04.593Z,71.07
2018-06-22T04:25:37.880Z,70.83
2018-06-22T04:28:10.372Z,70.49
2018-06-22T04:30:43.724Z,70.44
2018-06-22T04:33:16.389Z,70.52
2018-06-22T04:35:48.998Z,70.30
2018-06-22T04:38:21.916Z,70.18
2018-06-22T04:40:54.284Z,70.09
2018-06-22T04:43:26.904Z,69.89
2018-06-22T04:46:03.848Z,69.64
2018-06-22T04:48:39.254Z,69.45
2018-06-22T04:51:11.839Z,69.66
2018-06-22T04:53:48.518Z,69.57
2018-06-22T04:56:21.456Z,69.57
2018-06-22T04:58:55.458Z,69.44
2018-06-22T05:01:28.760Z,69.33
2018-06-22T05:04:05.469Z,69.48
2018-06-22T05:06:41.897Z,69.07
2018-06-22T05:09:14.382Z,69.00
2018-06-22T05:11:46.793Z,68.88
2018-06-22T05:14:20.488Z,68.74
2018-06-22T05:16:52.928Z,68.51
2018-06-22T05:19:26.508Z,68.66
2018-06-22T05:21:59.132Z,68.77
2018-06-22T05:24:32.302Z,68.76
2018-06-22T05:27:05.717Z,68.73
2018-06-22T05:29:40.893Z,68.97
2018-06-22T05:32:14.128Z,69.17
2018-06-22T05:34:48.464Z,69.48
2018-06-22T05:37:21.379Z,69.63
2018-06-22T05:39:55.237Z,69.70
2018-06-22T05:42:27.758Z,69.62
2018-06-22T05:45:00.580Z,69.37
2018-06-22T05:47:35.390Z,69.13
2018-06-22T05:50:09.748Z,69.20
2018-06-22T05:52:42.493Z,69.30
2018-06-22T05:55:15.133Z,69.29
2018-06-22T05:57:49.112Z,69.11
2018-06-22T06:00:29.249Z,69.58
2018-06-22T06:03:04.181Z,69.51
2018-06-22T06:05:38.697Z,69.15
2018-06-22T06:08:12.467Z,69.22
2018-06-22T06:10:48.255Z,69.09
2018-06-22T06:13:20.802Z,69.28
2018-06-22T06:15:56.020Z,69.31
2018-06-22T06:18:29.136Z,69.17
2018-06-22T06:21:02.141Z,68.95
2018-06-22T06:23:35.507Z,68.73
2018-06-22T06:26:08.272Z,68.39
2018-06-22T06:28:42.602Z,68.00
2018-06-22T06:31:17.310Z,67.68
2018-06-22T06:33:50.668Z,67.65
2018-06-22T06:36:24.872Z,68.00
2018-06-22T06:38:59.132Z,68.64
2018-06-22T06:41:31.759Z,69.07
2018-06-22T06:44:04.385Z,69.14
2018-06-22T06:46:38.946Z,69.59
2018-06-22T06:49:11.504Z,69.96
2018-06-22T06:51:52.360Z,69.71
2018-06-22T06:54:26.967Z,69.09
2018-06-22T06:56:59.408Z,68.89
2018-06-22T06:59:34.069Z,68.66
2018-06-22T07:02:07.332Z,68.33
2018-06-22T07:04:40.588Z,69.18
2018-06-22T07:07:15.732Z,68.98
2018-06-22T07:09:48.285Z,69.19
2018-06-22T07:12:21.824Z,68.65
2018-06-22T07:15:00.437Z,69.27
2018-06-22T07:17:46.700Z,69.10
2018-06-22T07:20:24.703Z,69.27
2018-06-22T07:23:02.717Z,68.89
2018-06-22T07:25:37.964Z,68.34
2018-06-22T07:28:12.211Z,68.32
2018-06-22T07:30:48.612Z,68.30
2018-06-22T07:33:21.169Z,67.64
2018-06-22T07:35:57.408Z,66.89
2018-06-22T07:38:34.703Z,66.60
2018-06-22T07:41:09.799Z,66.98
2018-06-22T07:43:44.199Z,67.02
2018-06-22T07:46:17.820Z,66.70
2018-06-22T07:48:52.685Z,66.06
2018-06-22T07:51:27.709Z,66.42
2018-06-22T07:54:02.634Z,65.94
2018-06-22T07:56:35.880Z,65.23
2018-06-22T07:59:10.269Z,65.35
2018-06-22T08:01:43.358Z,65.62
2018-06-22T08:04:16.879Z,67.02
2018-06-22T08:06:50.815Z,67.85
2018-06-22T08:09:25.469Z,68.62
2018-06-22T08:11:58.927Z,69.31
2018-06-22T08:14:32.061Z,69.80
2018-06-22T08:17:04.708Z,69.68
2018-06-22T08:19:38.943Z,69.69
2018-06-22T08:22:11.632Z,70.07
2018-06-22T08:24:46.596Z,69.94
2018-06-22T08:27:20.400Z,68.84
2018-06-22T08:29:59.004Z,67.16
2018-06-22T08:32:31.356Z,67.46
2018-06-22T08:35:03.981Z,67.15
2018-06-22T08:37:38.443Z,68.18
2018-06-22T08:40:11.210Z,69.64
2018-06-22T08:42:43.825Z,69.54
2018-06-22T08:45:16.393Z,70.05
2018-06-22T08:47:54.116Z,70.02
2018-06-22T08:50:27.781Z,68.66
2018-06-22T08:53:01.421Z,67.54
2018-06-22T08:55:35.929Z,66.55
2018-06-22T08:58:10.459Z,66.93
2018-06-22T09:00:45.396Z,65.32
2018-06-22T09:03:18.208Z,63.86
2018-06-22T09:05:51.251Z,63.18
2018-06-22T09:08:25.197Z,63.97
2018-06-22T09:10:59.324Z,65.50
2018-06-22T09:13:32.702Z,66.43
2018-06-22T09:16:06.142Z,67.41
2018-06-22T09:18:45.857Z,65.80
2018-06-22T09:21:24.219Z,66.19
2018-06-22T09:23:57.337Z,68.02
2018-06-22T09:26:31.157Z,68.35
2018-06-22T09:29:04.253Z,67.96
2018-06-22T09:31:36.682Z,69.70
2018-06-22T09:34:11.439Z,68.93
2018-06-22T09:36:45.083Z,70.27
2018-06-22T09:39:17.555Z,71.34
2018-06-22T09:41:52.602Z,69.55
2018-06-22T09:44:37.116Z,67.50
2018-06-22T09:47:13.540Z,67.23
2018-06-22T09:49:49.652Z,66.23
2018-06-22T09:52:23.577Z,65.02
2018-06-22T09:54:59.628Z,65.60
2018-06-22T09:57:35.163Z,64.42
2018-06-22T10:00:08.926Z,63.54
2018-06-22T10:02:43.010Z,63.65
2018-06-22T10:05:18.744Z,61.42
2018-06-22T10:07:55.926Z,61.26
2018-06-22T10:10:30.342Z,61.15
2018-06-22T10:13:06.248Z,59.45
2018-06-22T10:15:39.700Z,58.68
2018-06-22T10:18:14.772Z,58.37
2018-06-22T10:20:50.275Z,57.82
2018-06-22T10:23:23.249Z,57.52
2018-06-22T10:25:56.481Z,57.30
2018-06-22T10:28:29.428Z,57.51
2018-06-22T10:31:02.797Z,57.57
2018-06-22T10:33:36.723Z,57.44
2018-06-22T10:36:12.481Z,57.84
2018-06-22T10:38:50.196Z,59.76
2018-06-22T10:41:24.032Z,62.46
2018-06-22T10:43:59.650Z,62.22
2018-06-22T10:46:33.565Z,62.73
2018-06-22T10:49:13.481Z,63.00
2018-06-22T10:51:51.263Z,61.83
2018-06-22T10:54:25.259Z,61.61
2018-06-22T10:57:01.705Z,61.04
2018-06-22T10:59:34.311Z,62.39
2018-06-22T11:02:08.714Z,61.83
2018-06-22T11:04:48.782Z,60.33
2018-06-22T11:07:27.793Z,61.00
2018-06-22T11:10:01.834Z,62.41
2018-06-22T11:12:50.229Z,62.48
2018-06-22T11:15:48.710Z,63.55
2018-06-22T11:18:37.024Z,63.66
2018-06-22T11:21:35.502Z,63.37
2018-06-22T11:24:28.375Z,62.40
2018-06-22T11:27:05.736Z,61.03
2018-06-22T11:29:45.884Z,58.53
2018-06-22T11:32:32.598Z,56.84
2018-06-22T11:35:08.478Z,58.41
2018-06-22T11:37:46.895Z,61.35
2018-06-22T11:40:25.600Z,63.07
2018-06-22T11:44:01.730Z,66.82
2018-06-22T11:46:47.550Z,69.64
2018-06-22T11:49:30.525Z,70.85
2018-06-22T11:52:12.212Z,70.75
2018-06-22T11:54:51.544Z,69.22
2018-06-22T11:57:27.304Z,68.03
2018-06-22T12:00:08.781Z,67.39
2018-06-22T12:02:46.853Z,67.04
2018-06-22T12:05:27.637Z,64.90
2018-06-22T12:08:04.605Z,64.34
2018-06-22T12:10:42.501Z,59.20
2018-06-22T12:13:19.542Z,59.43
2018-06-22T12:15:57.113Z,57.76
2018-06-22T12:18:30.517Z,57.56
2018-06-22T12:21:08.391Z,58.38
2018-06-22T12:23:42.144Z,57.19
2018-06-22T12:26:14.873Z,56.58
2018-06-22T12:28:52.414Z,56.29
2018-06-22T12:31:26.511Z,57.00
2018-06-22T12:34:01.482Z,59.97
2018-06-22T12:36:35.981Z,64.23
2018-06-22T12:39:13.936Z,66.11
2018-06-22T12:41:47.155Z,68.61
2018-06-22T12:44:19.893Z,69.32
2018-06-22T12:46:57.767Z,70.84
2018-06-22T12:49:38.506Z,69.42
2018-06-22T12:52:18.282Z,67.72
2018-06-22T12:54:53.889Z,67.69
2018-06-22T12:57:28.591Z,63.67
2018-06-22T13:00:06.619Z,62.18
2018-06-22T13:02:51.747Z,62.19
2018-06-22T13:05:25.629Z,59.22
2018-06-22T13:08:01.232Z,55.62
2018-06-22T13:10:34.493Z,56.76
2018-06-22T13:13:13.384Z,56.32
2018-06-22T13:16:04.679Z,56.32
2018-06-22T13:18:38.185Z,56.24
2018-06-22T13:21:11.837Z,54.89
2018-06-22T13:23:45.896Z,53.77
2018-06-22T13:26:19.428Z,55.54
2018-06-22T13:28:59.773Z,56.70
2018-06-22T13:31:35.328Z,57.34
2018-06-22T13:34:08.430Z,57.52
2018-06-22T13:36:45.016Z,57.22
2018-06-22T13:39:19.182Z,57.19
2018-06-22T13:42:05.515Z,56.58
2018-06-22T13:44:38.636Z,56.83
2018-06-22T13:47:12.552Z,56.66
2018-06-22T13:49:55.926Z,55.53
2018-06-22T13:52:32.737Z,54.66
2018-06-22T13:55:05.932Z,53.00
2018-06-22T13:57:41.865Z,52.32
2018-06-22T14:00:18.404Z,52.52
2018-06-22T14:02:58.825Z,51.55
2018-06-22T14:05:47.645Z,50.26
2018-06-22T14:08:27.872Z,49.57
2018-06-22T14:11:07.606Z,50.76
2018-06-22T14:13:41.597Z,50.43
2018-06-22T14:16:21.721Z,49.41
2018-06-22T14:19:00.758Z,50.15
2018-06-22T14:21:36.626Z,51.46
2018-06-22T14:24:10.169Z,51.98
2018-06-22T14:26:43.889Z,52.00
2018-06-22T14:29:20.482Z,52.55
2018-06-22T14:31:58.537Z,53.01
2018-06-22T14:34:32.633Z,53.16
2018-06-22T14:37:06.960Z,53.56
2018-06-22T14:39:40.807Z,52.61
2018-06-22T14:42:31.392Z,51.35
2018-06-22T14:45:11.756Z,49.12
2018-06-22T14:47:49.921Z,49.06
2018-06-22T14:50:23.470Z,50.01
2018-06-22T14:53:03.943Z,50.94
2018-06-22T14:56:03.284Z,50.76
2018-06-22T14:58:57.909Z,50.16
2018-06-22T15:01:38.210Z,49.24
2018-06-22T15:04:18.558Z,49.44
2018-06-22T15:06:58.958Z,50.63
2018-06-22T15:09:33.779Z,48.91
2018-06-22T15:12:11.092Z,50.55
2018-06-22T15:14:45.224Z,49.76
2018-06-22T15:17:21.715Z,48.96
2018-06-22T15:19:57.198Z,47.64
2018-06-22T15:22:33.753Z,46.18
2018-06-22T15:25:14.391Z,45.05
2018-06-22T15:27:50.139Z,46.06
2018-06-22T15:30:24.357Z,47.10
2018-06-22T15:45:26.568Z,45.51
2018-06-22T15:48:08.333Z,43.61
2018-06-22T15:50:46.555Z,42.82
2018-06-22T15:53:26.949Z,42.99
2018-06-22T15:56:09.635Z,42.50
2018-06-22T15:58:42.364Z,43.33
2018-06-22T16:01:16.157Z,44.13
2018-06-22T16:03:57.451Z,44.69
2018-06-22T16:06:32.597Z,45.22
2018-06-22T16:09:10.601Z,45.86
2018-06-22T16:11:43.708Z,46.99
2018-06-22T16:14:30.501Z,48.79
2018-06-22T16:17:13.938Z,49.31
2018-06-22T16:19:53.287Z,50.22
2018-06-22T16:22:31.316Z,50.18
2018-06-22T16:25:14.330Z,48.96
2018-06-22T16:27:53.782Z,46.95
2018-06-22T16:30:29.085Z,47.20
2018-06-22T16:33:11.114Z,47.45
2018-06-22T16:35:45.225Z,48.19
2018-06-22T16:38:20.783Z,48.88
2018-06-22T16:40:56.430Z,48.36
2018-06-22T16:43:29.176Z,47.02
2018-06-22T16:46:12.362Z,46.27
2018-06-22T16:48:46.713Z,46.55
2018-06-22T16:51:21.022Z,46.97
2018-06-22T16:54:01.377Z,46.50
2018-06-22T16:56:35.441Z,46.44
2018-06-22T16:59:12.089Z,47.06
2018-06-22T17:01:48.415Z,48.75
2018-06-22T17:04:21.802Z,50.85
2018-06-22T17:07:04.817Z,51.68
2018-06-22T17:09:46.049Z,52.46
2018-06-22T17:12:26.677Z,51.84
2018-06-22T17:15:08.638Z,52.12
2018-06-22T17:17:51.572Z,52.49
2018-06-22T17:20:38.584Z,53.30
2018-06-22T17:23:16.639Z,53.48
2018-06-22T17:25:49.969Z,54.12
2018-06-22T17:28:25.961Z,54.42
2018-06-22T17:31:02.850Z,54.71
2018-06-22T17:33:40.361Z,55.19
2018-06-22T17:36:18.975Z,55.14
2018-06-22T17:39:50.751Z,54.65
2018-06-22T17:42:26.804Z,52.97
2018-06-22T17:45:15.571Z,52.05
2018-06-22T17:47:51.328Z,51.24
2018-06-22T17:50:30.044Z,51.26
2018-06-22T17:53:15.142Z,52.32
2018-06-22T17:55:55.223Z,53.21
2018-06-22T17:58:27.693Z,53.55
2018-06-22T18:01:12.180Z,53.79
2018-06-22T18:03:54.677Z,54.20
2018-06-22T18:06:34.941Z,52.69
2018-06-22T18:09:19.446Z,51.32
2018-06-22T18:11:59.153Z,51.48
2018-06-22T18:14:33.748Z,51.75
2018-06-22T18:17:08.478Z,52.46
2018-06-22T18:19:41.575Z,52.85
2018-06-22T18:22:16.760Z,53.49
2018-06-22T18:24:49.244Z,53.45
2018-06-22T18:27:23.255Z,52.39
2018-06-22T18:29:56.805Z,51.58
2018-06-22T18:32:30.854Z,50.89
2018-06-22T18:35:14.476Z,51.85
2018-06-22T18:37:48.200Z,52.39
2018-06-22T18:40:21.058Z,53.13
2018-06-22T18:42:55.987Z,53.92
2018-06-22T18:45:32.096Z,54.48
2018-06-22T18:48:08.612Z,55.05
2018-06-22T18:50:46.978Z,55.59
2018-06-22T18:53:27.121Z,56.13
2018-06-22T18:56:07.956Z,55.79
2018-06-22T18:58:48.679Z,56.05
2018-06-22T19:01:29.564Z,56.92
2018-06-22T19:04:19.433Z,57.89
2018-06-22T19:06:53.464Z,58.76
2018-06-22T19:09:30.332Z,59.54
2018-06-22T19:12:05.987Z,59.71
2018-06-22T19:14:49.730Z,60.31
2018-06-22T19:17:27.205Z,60.93
2018-06-22T19:20:03.440Z,61.62
2018-06-22T19:22:40.838Z,61.73
2018-06-22T19:25:20.619Z,62.36
2018-06-22T19:27:55.472Z,62.79
2018-06-22T19:30:31.504Z,63.17
2018-06-22T19:33:11.363Z,63.48
2018-06-22T19:35:50.052Z,63.62
2018-06-22T19:38:25.296Z,64.06
2018-06-22T19:41:01.487Z,64.12
2018-06-22T19:43:42.563Z,64.24
2018-06-22T19:46:27.502Z,64.48
2018-06-22T19:49:07.703Z,65.07
2018-06-22T19:51:52.780Z,65.16
2018-06-22T19:54:31.369Z,65.17
2018-06-22T19:57:16.002Z,65.10
2018-06-22T19:59:51.648Z,64.12
2018-06-22T20:02:25.632Z,63.13
2018-06-22T20:05:01.909Z,62.22
2018-06-22T20:07:39.699Z,62.00
2018-06-22T20:10:19.684Z,62.08
2018-06-22T20:13:00.451Z,62.17
2018-06-22T20:15:41.375Z,62.46
2018-06-22T20:18:25.656Z,62.90
2018-06-22T20:21:13.769Z,63.42
2018-06-22T20:23:52.317Z,63.81
2018-06-22T20:26:31.329Z,64.02
2018-06-22T20:29:16.011Z,64.27
2018-06-22T20:31:54.095Z,64.62
2018-06-22T20:34:34.068Z,64.81
2018-06-22T20:37:19.424Z,65.21
2018-06-22T20:40:02.404Z,65.89
2018-06-22T20:42:55.642Z,66.15
2018-06-22T20:45:34.676Z,66.57
2018-06-22T20:48:22.176Z,66.96
2018-06-22T20:51:03.186Z,67.32
2018-06-22T20:53:46.299Z,67.89
2018-06-22T20:56:27.893Z,68.56
2018-06-22T20:59:08.507Z,69.21
2018-06-22T21:01:50.584Z,69.40
2018-06-22T21:04:29.065Z,69.68
2018-06-22T21:07:04.546Z,69.90
2018-06-22T21:09:42.449Z,69.99
2018-06-22T21:12:26.253Z,69.74
2018-06-22T21:14:57.866Z,69.67
2018-06-22T21:17:37.877Z,69.58
2018-06-22T21:20:16.625Z,69.50
2018-06-22T21:22:49.466Z,69.40
2018-06-22T21:25:32.481Z,69.27
2018-06-22T21:28:24.036Z,69.07
2018-06-22T21:31:08.228Z,68.71
2018-06-22T21:33:52.617Z,68.68
2018-06-22T21:36:35.481Z,68.91
2018-06-22T21:39:18.866Z,68.91
2018-06-22T21:42:05.776Z,69.08
2018-06-22T21:44:47.307Z,69.29
2018-06-22T21:47:26.593Z,69.43
2018-06-22T21:50:02.727Z,69.49
2018-06-22T21:52:41.029Z,69.59
2018-06-22T21:55:18.907Z,69.79
2018-06-22T21:57:54.309Z,69.87
2018-06-22T22:00:35.730Z,70.14
2018-06-22T22:03:11.452Z,70.42
2018-06-22T22:05:45.024Z,70.86
2018-06-22T22:08:24.657Z,71.35
2018-06-22T22:11:12.692Z,71.83
2018-06-22T22:13:50.549Z,72.08
2018-06-22T22:16:23.514Z,72.82
2018-06-22T22:18:56.246Z,73.00
2018-06-22T22:21:31.666Z,73.46
2018-06-22T22:24:07.506Z,73.86
2018-06-22T22:26:41.819Z,74.46
2018-06-22T22:29:21.941Z,74.77
2018-06-22T22:31:57.048Z,74.74
2018-06-22T22:34:32.202Z,74.81
2018-06-22T22:37:06.781Z,74.75
2018-06-22T22:39:40.077Z,74.45
2018-06-22T22:42:22.528Z,74.13
2018-06-22T22:45:07.851Z,73.93
2018-06-22T22:47:43.624Z,73.35
2018-06-22T22:50:18.654Z,73.17
2018-06-22T22:52:56.610Z,73.11
2018-06-22T22:55:32.209Z,73.05
2018-06-22T22:58:09.003Z,73.06
2018-06-22T23:00:49.878Z,73.20
2018-06-22T23:03:33.392Z,72.97
2018-06-22T23:06:11.022Z,73.15
2018-06-22T23:08:47.902Z,73.19
2018-06-22T23:11:23.246Z,73.04
2018-06-22T23:13:58.304Z,72.66
2018-06-22T23:16:34.749Z,72.40
2018-06-22T23:19:16.541Z,72.05
2018-06-22T23:21:50.022Z,72.02
2018-06-22T23:24:25.531Z,71.79
2018-06-22T23:26:59.266Z,71.64
2018-06-22T23:29:32.049Z,71.40
2018-06-22T23:32:08.267Z,71.24
2018-06-22T23:34:41.084Z,71.26
2018-06-22T23:37:15.468Z,71.40
2018-06-22T23:39:50.235Z,71.56
2018-06-22T23:42:23.340Z,71.73
2018-06-22T23:44:58.815Z,71.90
2018-06-22T23:47:34.098Z,72.14
2018-06-22T23:50:06.776Z,72.29
2018-06-22T23:52:43.366Z,72.36
2018-06-22T23:55:22.872Z,72.29
2018-06-22T23:57:55.896Z,72.63
